LFOH 222030Z AUTO 20012KT CAVOK 15/12 Q1011

ElémentsDécodage
LFOH Station météo située sur l'aérodrome de LE-HAVRE Octeville
222030Z émis le 22 du mois à 20h30 UTC
AUTO Bulletin édité par un automate
20012KT vent du 200°, 12 noeuds
CAVOK Ceiling And Visibility OK
- Visibilité de 10 Km ou plus
- Pas de nuage au-dessous de 1500m ou au-dessous de l'altitude minimale du secteur la plus élevée (si>1500m) et absence de CB
- pas de temps présent significatif
15/12 température 15°C, point de rosée 12°C
 soit une humidité relative de 82%
Q1011 la pression au niveau de la mer (QNH) est de 1011 hPa